Details for Virgin Atlantic at EGCC




Go Back


Latest METAR
Local Time

EGCC 232350Z AUTO VRB03KT 9999 NCD 00/M04 Q1021 NOSIG

24/02/2018, 00:01:45

Description
Results
Virgin Atlantic Logo
Number of Pilots based at EGCC
2 Pilots Based here
Number of Virgin Atlantic Flights Departed from EGCC
4 Flights Departed
Number of Virgin Atlantic Flights Arrived at EGCC
2 Flights Arrived
Number of Virgin Atlantic Schedules Departing from EGCC
9 Schedules
Number of Virgin Atlantic Schedules Arriving at EGCC
8 Schedules
Number of Virgin Atlantic Schedules Departing from EGCC availible today
3 Schedules Today
Number of Virgin Atlantic Schedules Arriving at EGCC availible today
3 Schedules Today
Average Landing Rate at EGCC
-219 fpm
Virgin Atlantic Average Landing Rate at EGCC
-300 fpm
Total Fuel Purchased at EGCC by Virgin Atlantic
315,246.30 kgs / 694,991.99 lbs

Pilots Based at EGCC


Pilot ID
Pilot Name
Pilot Rank
No. of Flights
No. of Flying Hours
Kevin Himsworth
7
14.38
Andrew Sutcliffe
333
1262.36
Content